PWSweather.com
Personal Weather Stations
Station Observations
TURNER1
South Turner, Turner, ME 04282

South TurnerTurner, ME 04282

Lat: 44.193235, Lon: -70.264886

Elevation: 500

Station Type: Davis Vantage Pro

www.southturnermaineweather.com

High Low Average
Temperature 72.7°F22.6°C 48.3°F9.1°C 58.5°F14.7°C
Dew Point 56.3°F13.5°C 48.3°F9.1°C 52.4°F11.3°C
Winds 5.8 mph 9.3 kmh Calm Calm 1.0 mph S1.6 kmh S
Wind Gusts 10.4 mph16.7 kmh -- 3.0 mph4.8 kmh
Humidity 100% 44% 83%
Pressure 30.08 in1018.6 mb 29.82 in1009.8 mb -
Precipitation 0.00 in0.0 mm - -
Hour Temp Dew Point Humidity Winds Wind Gusts Pressure Precip Precip Rate Daily Precip Total
12:00 AM 51.0°F10.6°C 51.0°F10.6°C 100% Calm Calm -- 29.82 in1009.8 mb - 0.00 in0.0 mm 0.00 in0.0 mm
12:30 AM 51.0°F10.6°C 51.0°F10.6°C 100% Calm Calm -- 29.84 in1010.5 mb - 0.00 in0.0 mm 0.00 in0.0 mm
01:00 AM 50.2°F10.1°C 50.2°F10.1°C 100% Calm Calm 1.2 mph1.9 kmh 29.82 in1009.8 mb - 0.00 in0.0 mm 0.00 in0.0 mm
01:30 AM 49.5°F9.7°C 49.5°F9.7°C 100% Calm Calm 1.2 mph1.9 kmh 29.83 in1010.2 mb - 0.00 in0.0 mm 0.00 in0.0 mm
02:00 AM 48.9°F9.4°C 48.9°F9.4°C 100% Calm Calm 1.2 mph1.9 kmh 29.86 in1011.2 mb - 0.00 in0.0 mm 0.00 in0.0 mm
02:30 AM 49.3°F9.6°C 49.3°F9.6°C 100% 1.2 mph W1.9 kmh W 2.3 mph3.7 kmh 29.87 in1011.5 mb - 0.00 in0.0 mm 0.00 in0.0 mm
03:00 AM 48.6°F9.2°C 48.6°F9.2°C 100% 1.2 mph S1.9 kmh S 1.2 mph1.9 kmh 29.88 in1011.9 mb - 0.00 in0.0 mm 0.00 in0.0 mm
03:30 AM 48.5°F9.2°C 48.5°F9.2°C 100% Calm Calm -- 29.89 in1012.2 mb - 0.00 in0.0 mm 0.00 in0.0 mm
04:00 AM 49.6°F9.8°C 49.6°F9.8°C 100% Calm Calm 2.3 mph3.7 kmh 29.91 in1012.9 mb - 0.00 in0.0 mm 0.00 in0.0 mm
04:30 AM 49.1°F9.5°C 49.1°F9.5°C 100% Calm Calm 1.2 mph1.9 kmh 29.93 in1013.5 mb - 0.00 in0.0 mm 0.00 in0.0 mm
05:00 AM 48.8°F9.3°C 48.8°F9.3°C 100% Calm Calm 1.2 mph1.9 kmh 29.94 in1013.9 mb - 0.00 in0.0 mm 0.00 in0.0 mm
05:30 AM 48.3°F9.1°C 48.3°F9.1°C 100% Calm Calm -- 29.97 in1014.9 mb - 0.00 in0.0 mm 0.00 in0.0 mm
06:00 AM 48.3°F9.1°C 48.3°F9.1°C 100% Calm Calm -- 29.98 in1015.2 mb - 0.00 in0.0 mm 0.00 in0.0 mm
06:30 AM 49.4°F9.7°C 49.4°F9.7°C 100% Calm Calm 1.2 mph1.9 kmh 29.98 in1015.2 mb - 0.00 in0.0 mm 0.00 in0.0 mm
07:00 AM 50.2°F10.1°C 50.2°F10.1°C 100% 1.2 mph SE1.9 kmh SE 1.2 mph1.9 kmh 29.99 in1015.6 mb - 0.00 in0.0 mm 0.00 in0.0 mm
07:30 AM 53.4°F11.9°C 53.4°F11.9°C 100% Calm Calm 1.2 mph1.9 kmh 30.00 in1015.9 mb - 0.00 in0.0 mm 0.00 in0.0 mm
08:00 AM 55.9°F13.3°C 55.9°F13.3°C 100% Calm Calm 1.2 mph1.9 kmh 30.02 in1016.6 mb - 0.00 in0.0 mm 0.00 in0.0 mm
08:30 AM 58.9°F14.9°C 56.3°F13.5°C 91% Calm Calm 1.2 mph1.9 kmh 30.03 in1016.9 mb - 0.00 in0.0 mm 0.00 in0.0 mm
09:00 AM 60.7°F15.9°C 55.5°F13.1°C 83% Calm Calm 2.3 mph3.7 kmh 30.03 in1016.9 mb - 0.00 in0.0 mm 0.00 in0.0 mm
09:30 AM 62.4°F16.9°C 54.8°F12.7°C 76% 1.2 mph S1.9 kmh S 2.3 mph3.7 kmh 30.03 in1016.9 mb - 0.00 in0.0 mm 0.00 in0.0 mm
10:00 AM 64.2°F17.9°C 53.8°F12.1°C 69% 2.3 mph WNW3.7 kmh WNW 3.5 mph5.6 kmh 30.04 in1017.3 mb - 0.00 in0.0 mm 0.00 in0.0 mm
10:30 AM 63.4°F17.4°C 53.5°F11.9°C 70% 2.3 mph SE3.7 kmh SE 2.3 mph3.7 kmh 30.05 in1017.6 mb - 0.00 in0.0 mm 0.00 in0.0 mm
11:00 AM 65.2°F18.4°C 54.3°F12.4°C 68% 2.3 mph N3.7 kmh N 3.5 mph5.6 kmh 30.05 in1017.6 mb - 0.00 in0.0 mm 0.00 in0.0 mm
11:30 AM 68.7°F20.4°C 54.3°F12.4°C 60% 2.3 mph WNW3.7 kmh WNW 3.5 mph5.6 kmh 30.05 in1017.6 mb - 0.00 in0.0 mm 0.00 in0.0 mm
12:00 PM 69.6°F20.9°C 55.1°F12.8°C 60% 1.2 mph SW1.9 kmh SW 1.2 mph1.9 kmh 30.04 in1017.3 mb - 0.00 in0.0 mm 0.00 in0.0 mm
12:30 PM 70.2°F21.2°C 54.3°F12.4°C 57% 1.2 mph E1.9 kmh E 3.5 mph5.6 kmh 30.04 in1017.3 mb - 0.00 in0.0 mm 0.00 in0.0 mm
01:00 PM 72.0°F22.2°C 51.2°F10.7°C 48% 3.5 mph WSW5.6 kmh WSW 5.8 mph9.3 kmh 30.03 in1016.9 mb - 0.00 in0.0 mm 0.00 in0.0 mm
01:30 PM 70.6°F21.4°C 52.1°F11.2°C 52% 2.3 mph N3.7 kmh N 3.5 mph5.6 kmh 30.03 in1016.9 mb - 0.00 in0.0 mm 0.00 in0.0 mm
02:00 PM 72.3°F22.4°C 49.8°F9.9°C 45% 1.2 mph NNW1.9 kmh NNW 3.5 mph5.6 kmh 30.02 in1016.6 mb - 0.00 in0.0 mm 0.00 in0.0 mm
02:30 PM 72.3°F22.4°C 50.4°F10.2°C 46% 1.2 mph SSE1.9 kmh SSE 2.3 mph3.7 kmh 30.02 in1016.6 mb - 0.00 in0.0 mm 0.00 in0.0 mm
03:00 PM 72.7°F22.6°C 49.6°F9.8°C 44% 1.2 mph 1.9 kmh 3.5 mph5.6 kmh 30.02 in1016.6 mb - 0.00 in0.0 mm 0.00 in0.0 mm
03:30 PM 71.7°F22.1°C 49.8°F9.9°C 46% 1.2 mph SW1.9 kmh SW 1.2 mph1.9 kmh 30.02 in1016.6 mb - 0.00 in0.0 mm 0.00 in0.0 mm
04:00 PM 68.8°F20.4°C 53.4°F11.9°C 58% 1.2 mph SSE1.9 kmh SSE 1.2 mph1.9 kmh 30.04 in1017.3 mb - 0.00 in0.0 mm 0.00 in0.0 mm
04:30 PM 66.9°F19.4°C 54.3°F12.4°C 64% 1.2 mph SSE1.9 kmh SSE 2.3 mph3.7 kmh 30.04 in1017.3 mb - 0.00 in0.0 mm 0.00 in0.0 mm
05:00 PM 64.5°F18.1°C 55.3°F12.9°C 72% 3.5 mph SE5.6 kmh SE 4.6 mph7.4 kmh 30.05 in1017.6 mb - 0.00 in0.0 mm 0.00 in0.0 mm
05:30 PM 62.4°F16.9°C 55.8°F13.2°C 79% 2.3 mph SSE3.7 kmh SSE 4.6 mph7.4 kmh 30.06 in1017.9 mb - 0.00 in0.0 mm 0.00 in0.0 mm
06:00 PM 61.3°F16.3°C 55.4°F13.0°C 81% 5.8 mph SE9.3 kmh SE 10.4 mph16.7 kmh 30.06 in1017.9 mb - 0.00 in0.0 mm 0.00 in0.0 mm
06:30 PM 59.9°F15.5°C 54.8°F12.7°C 83% 4.6 mph SE7.4 kmh SE 5.8 mph9.3 kmh 30.06 in1017.9 mb - 0.00 in0.0 mm 0.00 in0.0 mm
07:00 PM 58.9°F14.9°C 54.1°F12.3°C 84% 3.5 mph S5.6 kmh S 5.8 mph9.3 kmh 30.07 in1018.3 mb - 0.00 in0.0 mm 0.00 in0.0 mm
07:30 PM 58.0°F14.4°C 53.2°F11.8°C 84% 4.6 mph SE7.4 kmh SE 8.1 mph13.0 kmh 30.07 in1018.3 mb - 0.00 in0.0 mm 0.00 in0.0 mm
08:00 PM 57.3°F14.1°C 54.0°F12.2°C 89% 3.5 mph SE5.6 kmh SE 5.8 mph9.3 kmh 30.07 in1018.3 mb - 0.00 in0.0 mm 0.00 in0.0 mm
08:30 PM 56.3°F13.5°C 54.6°F12.6°C 94% 2.3 mph SE3.7 kmh SE 3.5 mph5.6 kmh 30.07 in1018.3 mb - 0.00 in0.0 mm 0.00 in0.0 mm
09:00 PM 55.6°F13.1°C 55.0°F12.8°C 98% 1.2 mph SE1.9 kmh SE 2.3 mph3.7 kmh 30.08 in1018.6 mb - 0.00 in0.0 mm 0.00 in0.0 mm
09:30 PM 55.2°F12.9°C 54.9°F12.7°C 99% 2.3 mph SE3.7 kmh SE 3.5 mph5.6 kmh 30.08 in1018.6 mb - 0.00 in0.0 mm 0.00 in0.0 mm
10:00 PM 54.8°F12.7°C 54.8°F12.7°C 100% 1.2 mph ESE1.9 kmh ESE 1.2 mph1.9 kmh 30.07 in1018.3 mb - 0.00 in0.0 mm 0.00 in0.0 mm
10:30 PM 54.4°F12.4°C 54.4°F12.4°C 100% 2.3 mph SE3.7 kmh SE 6.9 mph11.1 kmh 30.06 in1017.9 mb - 0.00 in0.0 mm 0.00 in0.0 mm
11:00 PM 54.7°F12.6°C 54.4°F12.4°C 99% 1.2 mph S1.9 kmh S 4.6 mph7.4 kmh 30.07 in1018.3 mb - 0.00 in0.0 mm 0.00 in0.0 mm
11:30 PM 53.5°F11.9°C 53.5°F11.9°C 100% 1.2 mph S1.9 kmh S 1.2 mph1.9 kmh 30.07 in1018.3 mb - 0.00 in0.0 mm 0.00 in0.0 mm